Terminal Aerodrome Forecast
Issued by NWS

Home | Current Version | Previous Version | Graphics & Text | Print | Product List | Glossary On
Versions: 1 2 3 4 5 6 7 8 9 10 11 12 13 14 15 16 17 18 19 20 21 22 23 24 25 26 27 28 29 30 31 32 33 34
000
FTUS43 KLOT 241600 AAC
TAFDPA
TAF AMD
KDPA 241657Z 2417/2512 25024G33KT 2SM -SN SCT007 OVC015
      TEMPO 2417/2419 1/2SM SN OVC009
     FM242100 25023G31KT 5SM -SN SCT007 OVC015
     FM250100 25017G27KT P6SM -SHSN SCT010 OVC020
     FM250600 26013KT P6SM BKN025 OVC035=

USA.gov is the U.S. government's official web portal to all federal, state and local government web resources and services.